createdAt,value
2018-12-21T00:02:06.837Z,70.80
2018-12-21T00:04:15.643Z,70.80
2018-12-21T00:06:24.503Z,70.70
2018-12-21T00:08:33.208Z,70.70
2018-12-21T00:10:41.867Z,70.70
2018-12-21T00:12:50.660Z,70.70
2018-12-21T00:14:59.383Z,70.70
2018-12-21T00:17:08.084Z,70.60
2018-12-21T00:19:17.103Z,70.60
2018-12-21T00:21:26.754Z,70.80
2018-12-21T00:23:35.523Z,70.70
2018-12-21T00:25:44.284Z,70.60
2018-12-21T00:27:53.102Z,70.60
2018-12-21T00:30:01.934Z,70.60
2018-12-21T00:32:16.319Z,70.60
2018-12-21T00:34:30.927Z,70.50
2018-12-21T00:36:45.487Z,70.40
2018-12-21T00:39:00.315Z,70.40
2018-12-21T00:41:14.658Z,70.30
2018-12-21T00:43:28.115Z,70.30
2018-12-21T00:45:36.835Z,70.20
2018-12-21T00:47:46.270Z,70.40
2018-12-21T00:49:55.196Z,70.30
2018-12-21T00:52:04.098Z,70.30
2018-12-21T00:54:12.847Z,70.30
2018-12-21T00:56:21.651Z,70.20
2018-12-21T00:58:30.334Z,70.20
2018-12-21T01:00:39.145Z,70.20
2018-12-21T01:02:47.915Z,70.20
2018-12-21T01:04:57.650Z,70.60
2018-12-21T01:07:07.178Z,70.20
2018-12-21T01:09:15.907Z,70.10
2018-12-21T01:11:24.618Z,70.10
2018-12-21T01:13:33.246Z,70.10
2018-12-21T01:15:42.036Z,70.10
2018-12-21T01:17:50.767Z,70.10
2018-12-21T01:19:59.530Z,70.00
2018-12-21T01:22:08.450Z,70.00
2018-12-21T01:24:17.210Z,70.00
2018-12-21T01:26:25.927Z,69.90
2018-12-21T01:28:35.297Z,69.80
2018-12-21T01:30:44.780Z,70.10
2018-12-21T01:32:53.631Z,69.80
2018-12-21T01:35:02.462Z,69.70
2018-12-21T01:37:11.443Z,69.80
2018-12-21T01:39:20.203Z,69.60
2018-12-21T01:41:28.819Z,69.60
2018-12-21T01:43:37.497Z,69.60
2018-12-21T01:45:46.338Z,69.60
2018-12-21T01:47:55.854Z,69.50
2018-12-21T01:50:04.818Z,69.50
2018-12-21T01:52:14.324Z,70.30
2018-12-21T01:54:23.044Z,69.50
2018-12-21T01:56:31.855Z,69.50
2018-12-21T01:58:40.449Z,69.50
2018-12-21T02:00:49.184Z,69.40
2018-12-21T02:02:58.043Z,69.40
2018-12-21T02:05:07.075Z,69.30
2018-12-21T02:07:15.991Z,69.40
2018-12-21T02:09:24.875Z,70.10
2018-12-21T02:11:33.731Z,69.30
2018-12-21T02:13:42.327Z,69.30
2018-12-21T02:15:51.064Z,69.30
2018-12-21T02:18:00.535Z,69.20
2018-12-21T02:20:09.090Z,69.20
2018-12-21T02:22:17.730Z,69.10
2018-12-21T02:24:26.399Z,69.10
2018-12-21T02:26:35.263Z,69.10
2018-12-21T02:28:44.651Z,69.20
2018-12-21T02:30:54.339Z,69.20
2018-12-21T02:33:03.263Z,69.20
2018-12-21T02:35:11.985Z,69.20
2018-12-21T02:37:20.880Z,69.20
2018-12-21T02:39:29.494Z,69.20
2018-12-21T02:41:38.456Z,69.30
2018-12-21T02:43:47.193Z,69.30
2018-12-21T02:45:57.037Z,69.30
2018-12-21T02:48:06.643Z,69.40
2018-12-21T02:50:16.417Z,69.30
2018-12-21T02:52:25.238Z,69.30
2018-12-21T02:54:34.755Z,69.40
2018-12-21T02:56:43.640Z,69.30
2018-12-21T02:58:52.414Z,69.30
2018-12-21T03:01:01.234Z,69.30
2018-12-21T03:03:10.006Z,69.30
2018-12-21T03:05:19.693Z,69.30
2018-12-21T03:07:28.424Z,69.30
2018-12-21T03:09:37.935Z,69.20
2018-12-21T03:11:46.869Z,69.20
2018-12-21T03:13:55.650Z,69.20
2018-12-21T03:16:04.418Z,69.20
2018-12-21T03:18:13.089Z,69.30
2018-12-21T03:20:21.855Z,69.10
2018-12-21T03:22:31.245Z,69.10
2018-12-21T03:24:40.072Z,69.10
2018-12-21T03:26:48.883Z,69.10
2018-12-21T03:28:57.839Z,69.10
2018-12-21T03:31:06.767Z,69.10
2018-12-21T03:33:15.551Z,69.10
2018-12-21T03:35:24.503Z,69.20
2018-12-21T03:37:33.530Z,69.10
2018-12-21T03:39:42.347Z,69.00
2018-12-21T03:41:51.139Z,69.10
2018-12-21T03:44:00.773Z,69.10
2018-12-21T03:46:10.445Z,69.90
2018-12-21T03:48:20.160Z,69.10
2018-12-21T03:50:28.912Z,69.10
2018-12-21T03:52:37.829Z,69.00
2018-12-21T03:54:46.521Z,69.00
2018-12-21T03:56:55.348Z,69.00
2018-12-21T03:59:04.134Z,68.90
2018-12-21T04:01:12.875Z,68.80
2018-12-21T04:03:21.678Z,68.80
2018-12-21T04:05:30.330Z,69.50
2018-12-21T04:07:39.333Z,68.70
2018-12-21T04:09:48.861Z,68.50
2018-12-21T04:11:57.692Z,69.30
2018-12-21T04:14:06.433Z,68.50
2018-12-21T04:16:15.153Z,68.40
2018-12-21T04:18:23.811Z,68.30
2018-12-21T04:20:32.587Z,68.20
2018-12-21T04:22:42.323Z,68.60
2018-12-21T04:24:51.003Z,68.10
2018-12-21T04:26:59.691Z,68.00
2018-12-21T04:29:09.262Z,68.00
2018-12-21T04:31:18.122Z,67.90
2018-12-21T04:33:26.867Z,68.00
2018-12-21T04:35:35.738Z,68.00
2018-12-21T04:37:44.448Z,67.90
2018-12-21T04:39:54.087Z,67.80
2018-12-21T04:42:02.996Z,67.80
2018-12-21T04:44:11.654Z,67.80
2018-12-21T04:46:20.370Z,67.80
2018-12-21T04:48:29.214Z,67.80
2018-12-21T04:50:37.995Z,66.80
2018-12-21T04:52:46.654Z,66.80
2018-12-21T04:54:55.457Z,66.80
2018-12-21T04:57:04.182Z,66.80
2018-12-21T04:59:13.085Z,66.70
2018-12-21T05:01:21.978Z,66.60
2018-12-21T05:03:30.907Z,66.50
2018-12-21T05:05:40.431Z,66.40
2018-12-21T05:07:49.263Z,66.40
2018-12-21T05:09:57.983Z,66.30
2018-12-21T05:12:06.928Z,66.30
2018-12-21T05:14:15.615Z,66.30
2018-12-21T05:16:24.329Z,66.30
2018-12-21T05:18:33.062Z,66.30
2018-12-21T05:20:41.959Z,66.90
2018-12-21T05:22:52.317Z,65.50
2018-12-21T05:25:01.151Z,66.20
2018-12-21T05:27:09.962Z,65.90
2018-12-21T05:29:18.747Z,65.90
2018-12-21T05:31:28.510Z,65.90
2018-12-21T05:33:36.222Z,65.90
2018-12-21T05:35:45.071Z,66.00
2018-12-21T05:37:53.726Z,66.10
2018-12-21T05:40:02.711Z,66.40
2018-12-21T05:42:11.531Z,66.60
2018-12-21T05:44:21.070Z,67.20
2018-12-21T05:46:30.578Z,67.40
2018-12-21T05:48:39.447Z,67.40
2018-12-21T05:50:48.251Z,67.60
2018-12-21T05:53:00.775Z,67.80
2018-12-21T05:55:05.678Z,68.90
2018-12-21T05:57:15.178Z,69.60
2018-12-21T05:59:24.174Z,69.40
2018-12-21T06:01:33.006Z,69.50
2018-12-21T06:03:42.599Z,69.90
2018-12-21T06:05:51.291Z,69.80
2018-12-21T06:08:00.236Z,70.00
2018-12-21T06:10:09.143Z,70.10
2018-12-21T06:12:17.947Z,70.30
2018-12-21T06:14:26.778Z,70.40
2018-12-21T06:16:35.586Z,70.40
2018-12-21T06:18:45.154Z,70.70
2018-12-21T06:20:53.937Z,70.60
2018-12-21T06:23:09.478Z,70.80
2018-12-21T06:25:11.536Z,70.90
2018-12-21T06:27:20.320Z,71.10
2018-12-21T06:29:29.064Z,71.20
2018-12-21T06:31:37.823Z,71.30
2018-12-21T06:33:46.552Z,72.10
2018-12-21T06:35:55.714Z,71.50
2018-12-21T06:38:04.482Z,71.60
2018-12-21T06:40:13.978Z,71.90
2018-12-21T06:42:23.461Z,72.10
2018-12-21T06:44:32.295Z,72.00
2018-12-21T06:46:40.890Z,72.10
2018-12-21T06:48:49.760Z,72.20
2018-12-21T06:50:58.463Z,72.40
2018-12-21T06:53:07.134Z,72.40
2018-12-21T06:55:16.730Z,72.70
2018-12-21T06:57:25.402Z,72.60
2018-12-21T06:59:34.194Z,72.70
2018-12-21T07:01:42.988Z,72.90
2018-12-21T07:03:51.706Z,73.10
2018-12-21T07:06:01.349Z,73.30
2018-12-21T07:08:10.175Z,74.00
2018-12-21T07:10:18.981Z,73.30
2018-12-21T07:12:27.801Z,73.40
2018-12-21T07:14:36.825Z,74.20
2018-12-21T07:16:45.538Z,73.50
2018-12-21T07:18:54.330Z,73.60
2018-12-21T07:21:03.048Z,73.80
2018-12-21T07:23:11.848Z,73.80
2018-12-21T07:25:20.513Z,73.90
2018-12-21T07:27:29.926Z,74.10
2018-12-21T07:29:38.763Z,74.00
2018-12-21T07:31:47.455Z,74.10
2018-12-21T07:33:56.362Z,74.20
2018-12-21T07:36:08.588Z,74.40
2018-12-21T07:38:14.668Z,74.40
2018-12-21T07:40:23.410Z,74.50
2018-12-21T07:42:32.102Z,74.60
2018-12-21T07:44:40.959Z,74.70
2018-12-21T07:46:49.843Z,74.60
2018-12-21T07:48:59.379Z,74.80
2018-12-21T07:51:08.115Z,74.80
2018-12-21T07:53:16.909Z,74.90
2018-12-21T07:55:25.827Z,75.00
2018-12-21T07:57:34.685Z,75.00
2018-12-21T07:59:43.423Z,75.10
2018-12-21T08:01:52.401Z,75.20
2018-12-21T08:04:01.218Z,75.30
2018-12-21T08:06:09.979Z,75.30
2018-12-21T08:08:18.822Z,75.30
2018-12-21T08:10:27.563Z,75.40
2018-12-21T08:12:37.317Z,75.60
2018-12-21T08:14:47.541Z,75.70
2018-12-21T08:16:56.411Z,75.60
2018-12-21T08:19:05.329Z,75.60
2018-12-21T08:21:14.102Z,75.70
2018-12-21T08:23:22.919Z,75.70
2018-12-21T08:25:31.668Z,75.80
2018-12-21T08:27:40.372Z,75.80
2018-12-21T08:29:49.309Z,75.90
2018-12-21T08:31:59.050Z,76.00
2018-12-21T08:34:07.869Z,76.00
2018-12-21T08:36:16.598Z,76.80
2018-12-21T08:38:25.365Z,76.10
2018-12-21T08:40:34.246Z,76.20
2018-12-21T08:42:43.087Z,76.30
2018-12-21T08:44:52.686Z,76.40
2018-12-21T08:47:01.537Z,76.40
2018-12-21T08:49:11.225Z,76.50
2018-12-21T08:51:20.082Z,76.50
2018-12-21T08:53:30.442Z,76.60
2018-12-21T08:55:39.318Z,76.60
2018-12-21T08:57:48.984Z,76.90
2018-12-21T08:59:57.815Z,76.80
2018-12-21T09:02:06.757Z,76.60
2018-12-21T09:04:15.651Z,76.50
2018-12-21T09:06:24.634Z,76.60
2018-12-21T09:08:33.515Z,76.90
2018-12-21T09:10:42.415Z,77.00
2018-12-21T09:12:51.161Z,77.20
2018-12-21T09:14:59.957Z,77.30
2018-12-21T09:17:08.673Z,77.40
2018-12-21T09:19:17.536Z,77.50
2018-12-21T09:21:27.055Z,77.70
2018-12-21T09:23:35.873Z,77.60
2018-12-21T09:25:44.637Z,77.70
2018-12-21T09:27:53.474Z,77.80
2018-12-21T09:30:02.203Z,77.90
2018-12-21T09:32:11.845Z,78.20
2018-12-21T09:34:21.247Z,78.30
2018-12-21T09:36:30.075Z,78.20
2018-12-21T09:38:38.940Z,78.20
2018-12-21T09:40:48.526Z,78.50
2018-12-21T09:42:57.273Z,78.40
2018-12-21T09:45:06.092Z,78.50
2018-12-21T09:47:15.014Z,78.50
2018-12-21T09:49:23.670Z,78.60
2018-12-21T09:51:32.367Z,78.60
2018-12-21T09:53:48.003Z,78.80
2018-12-21T09:55:56.790Z,78.70
2018-12-21T09:58:06.591Z,78.90
2018-12-21T10:00:15.312Z,78.80
2018-12-21T10:02:24.010Z,78.90
2018-12-21T10:04:32.933Z,79.00
2018-12-21T10:06:41.754Z,79.00
2018-12-21T10:08:50.619Z,79.10
2018-12-21T10:10:59.406Z,79.30
2018-12-21T10:13:08.607Z,79.20
2018-12-21T10:15:17.459Z,79.30
2018-12-21T10:17:26.322Z,78.30
2018-12-21T10:19:35.915Z,78.40
2018-12-21T10:21:44.734Z,78.40
2018-12-21T10:23:53.464Z,78.40
2018-12-21T10:26:02.170Z,78.40
2018-12-21T10:28:11.603Z,78.50
2018-12-21T10:30:20.287Z,78.60
2018-12-21T10:32:29.243Z,78.60
2018-12-21T10:34:38.150Z,78.70
2018-12-21T10:36:47.679Z,78.80
2018-12-21T10:38:56.564Z,78.80
2018-12-21T10:41:05.398Z,78.80
2018-12-21T10:43:14.274Z,78.80
2018-12-21T10:45:23.905Z,79.30
2018-12-21T10:47:32.795Z,79.00
2018-12-21T10:49:41.747Z,79.00
2018-12-21T10:51:50.567Z,79.00
2018-12-21T10:53:59.388Z,79.10
2018-12-21T10:56:08.184Z,79.10
2018-12-21T10:58:17.129Z,79.30
2018-12-21T11:00:26.785Z,79.70
2018-12-21T11:02:35.591Z,79.30
2018-12-21T11:04:44.342Z,79.30
2018-12-21T11:06:53.930Z,80.10
2018-12-21T11:09:02.973Z,79.30
2018-12-21T11:11:11.790Z,79.40
2018-12-21T11:13:20.666Z,79.30
2018-12-21T11:15:29.468Z,79.50
2018-12-21T11:17:38.254Z,79.50
2018-12-21T11:19:47.073Z,79.50
2018-12-21T11:21:55.863Z,79.50
2018-12-21T11:24:04.607Z,79.50
2018-12-21T11:26:13.531Z,79.60
2018-12-21T11:28:25.577Z,79.60
2018-12-21T11:30:31.046Z,79.60
2018-12-21T11:32:39.744Z,79.60
2018-12-21T11:34:49.422Z,79.60
2018-12-21T11:36:58.110Z,79.60
2018-12-21T11:39:06.815Z,79.60
2018-12-21T11:41:15.494Z,79.70
2018-12-21T11:43:24.292Z,79.70
2018-12-21T11:45:33.039Z,79.70
2018-12-21T11:47:42.547Z,79.70
2018-12-21T11:49:52.288Z,79.70
2018-12-21T11:52:01.166Z,79.60
2018-12-21T11:54:10.724Z,79.70
2018-12-21T11:56:19.673Z,79.70
2018-12-21T11:58:29.290Z,79.80
2018-12-21T12:00:38.234Z,79.70
2018-12-21T12:02:46.903Z,79.70
2018-12-21T12:04:55.890Z,79.90
2018-12-21T12:07:05.488Z,80.00
2018-12-21T12:09:14.282Z,79.80
2018-12-21T12:11:23.073Z,79.80
2018-12-21T12:13:32.666Z,79.80
2018-12-21T12:15:41.346Z,79.70
2018-12-21T12:17:50.157Z,79.80
2018-12-21T12:19:58.854Z,79.80
2018-12-21T12:22:07.760Z,79.80
2018-12-21T12:24:16.580Z,79.80
2018-12-21T12:26:26.020Z,79.80
2018-12-21T12:28:34.857Z,79.70
2018-12-21T12:30:43.595Z,79.80
2018-12-21T12:32:52.386Z,79.80
2018-12-21T12:35:01.202Z,79.80
2018-12-21T12:37:10.856Z,79.90
2018-12-21T12:39:19.530Z,79.80
2018-12-21T12:41:28.402Z,79.80
2018-12-21T12:43:37.300Z,80.60
2018-12-21T12:45:46.223Z,79.90
2018-12-21T12:47:54.889Z,79.90
2018-12-21T12:50:03.609Z,79.90
2018-12-21T12:52:13.208Z,80.00
2018-12-21T12:54:22.035Z,79.90
2018-12-21T12:56:30.910Z,79.90
2018-12-21T12:58:39.645Z,79.90
2018-12-21T13:00:48.465Z,79.90
2018-12-21T13:02:57.165Z,79.90
2018-12-21T13:05:06.103Z,79.90
2018-12-21T13:07:14.847Z,79.90
2018-12-21T13:09:23.714Z,80.60
2018-12-21T13:11:32.461Z,79.80
2018-12-21T13:13:41.283Z,79.80
2018-12-21T13:15:50.102Z,79.90
2018-12-21T13:17:59.641Z,80.10
2018-12-21T13:20:08.509Z,79.70
2018-12-21T13:22:17.379Z,79.70
2018-12-21T13:24:27.120Z,80.30
2018-12-21T13:26:35.942Z,79.60
2018-12-21T13:28:44.710Z,79.60
2018-12-21T13:30:53.426Z,79.60
2018-12-21T13:33:02.168Z,79.50
2018-12-21T13:35:10.785Z,79.40
2018-12-21T13:37:20.449Z,79.40
2018-12-21T13:39:29.250Z,79.20
2018-12-21T13:41:38.192Z,79.30
2018-12-21T13:43:47.007Z,79.20
2018-12-21T13:45:55.797Z,79.10
2018-12-21T13:48:04.727Z,79.70
2018-12-21T13:50:13.495Z,79.00
2018-12-21T13:52:22.187Z,78.90
2018-12-21T13:54:30.975Z,78.70
2018-12-21T13:56:39.828Z,78.70
2018-12-21T13:58:48.682Z,78.60
2018-12-21T14:00:57.283Z,78.60
2018-12-21T14:03:07.103Z,78.50
2018-12-21T14:05:15.939Z,78.50
2018-12-21T14:07:25.036Z,78.40
2018-12-21T14:09:33.875Z,78.30
2018-12-21T14:11:42.694Z,78.30
2018-12-21T14:13:51.434Z,78.30
2018-12-21T14:16:00.333Z,78.20
2018-12-21T14:18:09.019Z,78.10
2018-12-21T14:20:18.455Z,78.50
2018-12-21T14:22:28.863Z,77.80
2018-12-21T14:24:37.626Z,77.90
2018-12-21T14:26:46.499Z,77.80
2018-12-21T14:28:55.403Z,77.80
2018-12-21T14:31:04.222Z,78.40
2018-12-21T14:33:13.119Z,77.70
2018-12-21T14:35:22.047Z,77.60
2018-12-21T14:37:30.786Z,77.60
2018-12-21T14:39:39.527Z,78.20
2018-12-21T14:41:48.386Z,77.50
2018-12-21T14:43:57.346Z,77.60
2018-12-21T14:46:06.134Z,77.70
2018-12-21T14:48:14.927Z,77.80
2018-12-21T14:50:24.331Z,77.80
2018-12-21T14:52:33.828Z,77.80
2018-12-21T14:54:42.703Z,77.70
2018-12-21T14:56:51.597Z,77.70
2018-12-21T14:59:01.236Z,77.60
2018-12-21T15:01:10.650Z,77.60
2018-12-21T15:03:19.435Z,77.50
2018-12-21T15:05:28.323Z,77.40
2018-12-21T15:07:37.932Z,77.50
2018-12-21T15:09:46.918Z,77.40
2018-12-21T15:11:57.208Z,77.50
2018-12-21T15:14:07.497Z,77.50
2018-12-21T15:16:16.405Z,77.50
2018-12-21T15:18:26.044Z,77.50
2018-12-21T15:20:35.187Z,77.50
2018-12-21T15:22:43.989Z,77.60
2018-12-21T15:24:52.809Z,77.60
2018-12-21T15:27:01.475Z,77.70
2018-12-21T15:29:10.170Z,77.70
2018-12-21T15:31:19.064Z,77.70
2018-12-21T15:33:27.884Z,77.70
2018-12-21T15:35:36.647Z,77.70
2018-12-21T15:37:46.328Z,77.80
2018-12-21T15:39:55.142Z,77.70
2018-12-21T15:42:03.901Z,77.70
2018-12-21T15:44:12.674Z,77.70
2018-12-21T15:46:21.521Z,77.70
2018-12-21T15:48:30.360Z,77.70
2018-12-21T15:50:39.071Z,77.70
2018-12-21T15:52:47.860Z,77.70
2018-12-21T15:54:56.904Z,77.60
2018-12-21T15:57:05.662Z,77.70
2018-12-21T15:59:14.389Z,77.60
2018-12-21T16:01:23.259Z,77.60
2018-12-21T16:03:31.930Z,77.60
2018-12-21T16:05:41.615Z,77.60
2018-12-21T16:07:50.493Z,77.50
2018-12-21T16:09:59.378Z,77.50
2018-12-21T16:12:08.304Z,77.40
2018-12-21T16:14:17.079Z,77.40
2018-12-21T16:16:26.643Z,78.20
2018-12-21T16:18:35.370Z,77.40
2018-12-21T16:20:44.198Z,77.30
2018-12-21T16:22:52.999Z,77.30
2018-12-21T16:25:01.834Z,77.30
2018-12-21T16:27:10.621Z,77.20
2018-12-21T16:29:19.394Z,77.20
2018-12-21T16:31:28.289Z,77.90
2018-12-21T16:33:37.243Z,77.10
2018-12-21T16:35:46.051Z,76.30
2018-12-21T16:37:54.847Z,76.90
2018-12-21T16:40:03.599Z,76.90
2018-12-21T16:42:12.373Z,76.80
2018-12-21T16:44:22.007Z,76.80
2018-12-21T16:46:30.794Z,76.70
2018-12-21T16:48:39.534Z,77.40
2018-12-21T16:50:48.471Z,76.70
2018-12-21T16:52:57.207Z,76.80
2018-12-21T16:55:07.115Z,76.80
2018-12-21T16:57:16.057Z,76.80
2018-12-21T16:59:24.883Z,76.60
2018-12-21T17:01:33.722Z,76.40
2018-12-21T17:03:42.489Z,76.50
2018-12-21T17:05:52.263Z,77.30
2018-12-21T17:08:01.126Z,76.60
2018-12-21T17:10:09.894Z,76.60
2018-12-21T17:12:18.754Z,76.60
2018-12-21T17:14:27.624Z,76.60
2018-12-21T17:16:36.506Z,76.50
2018-12-21T17:18:46.079Z,76.60
2018-12-21T17:20:54.966Z,76.50
2018-12-21T17:23:03.858Z,76.50
2018-12-21T17:25:12.646Z,76.40
2018-12-21T17:27:21.481Z,76.50
2018-12-21T17:29:30.214Z,76.50
2018-12-21T17:31:38.990Z,76.50
2018-12-21T17:33:47.818Z,76.40
2018-12-21T17:35:56.880Z,76.40
2018-12-21T17:38:05.654Z,76.40
2018-12-21T17:40:14.455Z,76.40
2018-12-21T17:42:23.246Z,76.50
2018-12-21T17:44:32.009Z,76.40
2018-12-21T17:46:41.603Z,76.40
2018-12-21T17:48:50.442Z,76.40
2018-12-21T17:50:59.282Z,76.30
2018-12-21T17:53:07.955Z,76.20
2018-12-21T17:55:16.752Z,76.20
2018-12-21T17:57:25.538Z,76.10
2018-12-21T17:59:34.362Z,76.00
2018-12-21T18:01:43.214Z,76.10
2018-12-21T18:03:51.920Z,76.00
2018-12-21T18:06:01.365Z,75.90
2018-12-21T18:08:10.185Z,75.80
2018-12-21T18:10:18.847Z,75.80
2018-12-21T18:12:28.541Z,75.70
2018-12-21T18:14:37.436Z,75.70
2018-12-21T18:16:46.385Z,75.60
2018-12-21T18:18:55.179Z,75.60
2018-12-21T18:21:04.128Z,75.60
2018-12-21T18:23:12.860Z,75.60
2018-12-21T18:25:21.498Z,75.50
2018-12-21T18:27:30.255Z,75.40
2018-12-21T18:29:39.103Z,75.30
2018-12-21T18:31:47.904Z,75.20
2018-12-21T18:33:56.771Z,75.20
2018-12-21T18:36:05.662Z,75.90
2018-12-21T18:38:15.619Z,75.10
2018-12-21T18:40:25.232Z,75.00
2018-12-21T18:42:34.789Z,75.00
2018-12-21T18:44:43.665Z,75.00
2018-12-21T18:46:52.631Z,74.90
2018-12-21T18:49:02.200Z,75.70
2018-12-21T18:51:11.063Z,74.80
2018-12-21T18:53:19.814Z,74.90
2018-12-21T18:55:29.415Z,74.80
2018-12-21T18:57:39.087Z,74.80
2018-12-21T18:59:48.581Z,74.70
2018-12-21T19:01:57.545Z,74.70
2018-12-21T19:04:07.286Z,74.60
2018-12-21T19:06:16.005Z,74.60
2018-12-21T19:08:25.564Z,73.90
2018-12-21T19:10:34.958Z,74.60
2018-12-21T19:12:43.826Z,74.40
2018-12-21T19:14:52.468Z,74.50
2018-12-21T19:17:01.434Z,74.40
2018-12-21T19:19:10.188Z,74.40
2018-12-21T19:21:18.968Z,74.30
2018-12-21T19:23:28.607Z,74.30
2018-12-21T19:25:37.342Z,74.20
2018-12-21T19:27:46.158Z,74.10
2018-12-21T19:29:54.900Z,74.10
2018-12-21T19:32:04.502Z,74.00
2018-12-21T19:34:13.434Z,74.00
2018-12-21T19:36:22.948Z,74.00
2018-12-21T19:38:31.723Z,73.90
2018-12-21T19:40:40.535Z,73.80
2018-12-21T19:42:49.202Z,73.80
2018-12-21T19:44:57.982Z,73.70
2018-12-21T19:47:06.775Z,74.40
2018-12-21T19:49:15.612Z,73.60
2018-12-21T19:51:25.290Z,73.70
2018-12-21T19:53:34.250Z,73.60
2018-12-21T19:55:43.843Z,73.60
2018-12-21T19:57:52.455Z,73.50
2018-12-21T20:00:01.356Z,73.50
2018-12-21T20:02:10.233Z,73.40
2018-12-21T20:04:18.891Z,73.40
2018-12-21T20:06:27.565Z,73.30
2018-12-21T20:08:36.489Z,73.30
2018-12-21T20:10:45.310Z,74.00
2018-12-21T20:12:54.131Z,73.20
2018-12-21T20:15:03.152Z,73.00
2018-12-21T20:17:11.972Z,73.00
2018-12-21T20:19:20.824Z,72.90
2018-12-21T20:21:30.403Z,72.20
2018-12-21T20:23:39.259Z,72.80
2018-12-21T20:25:48.972Z,72.20
2018-12-21T20:27:58.607Z,72.70
2018-12-21T20:30:07.488Z,72.60
2018-12-21T20:32:16.278Z,72.70
2018-12-21T20:34:25.015Z,72.60
2018-12-21T20:36:33.811Z,73.30
2018-12-21T20:38:42.719Z,72.60
2018-12-21T20:40:52.471Z,72.50
2018-12-21T20:43:01.986Z,73.30
2018-12-21T20:45:10.844Z,72.40
2018-12-21T20:47:19.726Z,72.40
2018-12-21T20:49:29.294Z,72.50
2018-12-21T20:51:38.804Z,72.40
2018-12-21T20:53:47.626Z,72.30
2018-12-21T20:55:56.496Z,72.40
2018-12-21T20:58:05.589Z,73.10
2018-12-21T21:00:14.340Z,72.30
2018-12-21T21:02:23.155Z,72.30
2018-12-21T21:04:31.948Z,72.30
2018-12-21T21:06:41.480Z,72.20
2018-12-21T21:08:50.267Z,72.20
2018-12-21T21:10:59.273Z,72.20
2018-12-21T21:13:08.120Z,72.20
2018-12-21T21:15:16.860Z,72.90
2018-12-21T21:17:25.787Z,72.10
2018-12-21T21:19:34.571Z,72.00
2018-12-21T21:21:43.426Z,72.00
2018-12-21T21:23:52.320Z,72.00
2018-12-21T21:26:01.174Z,71.90
2018-12-21T21:28:10.091Z,71.90
2018-12-21T21:30:18.991Z,71.90
2018-12-21T21:32:27.832Z,71.90
2018-12-21T21:34:36.418Z,71.80
2018-12-21T21:36:45.282Z,71.80
2018-12-21T21:38:54.171Z,71.80
2018-12-21T21:41:03.111Z,72.50
2018-12-21T21:43:11.918Z,71.80
2018-12-21T21:45:20.710Z,71.70
2018-12-21T21:47:29.406Z,71.80
2018-12-21T21:49:38.058Z,71.70
2018-12-21T21:51:46.860Z,71.70
2018-12-21T21:53:56.422Z,71.60
2018-12-21T21:56:05.261Z,71.50
2018-12-21T21:58:13.943Z,71.60
2018-12-21T22:00:22.693Z,72.40
2018-12-21T22:02:32.162Z,71.70
2018-12-21T22:04:40.947Z,71.60
2018-12-21T22:06:49.763Z,71.70
2018-12-21T22:08:58.450Z,71.60
2018-12-21T22:11:07.411Z,71.60
2018-12-21T22:13:16.247Z,72.40
2018-12-21T22:15:25.020Z,71.60
2018-12-21T22:17:33.994Z,71.60
2018-12-21T22:19:42.801Z,71.60
2018-12-21T22:21:51.646Z,71.50
2018-12-21T22:24:00.533Z,71.50
2018-12-21T22:26:09.407Z,71.40
2018-12-21T22:28:18.193Z,71.30
2018-12-21T22:30:27.095Z,71.90
2018-12-21T22:32:35.884Z,71.90
2018-12-21T22:34:44.632Z,71.10
2018-12-21T22:36:53.490Z,71.10
2018-12-21T22:39:03.855Z,71.80
2018-12-21T22:41:11.430Z,71.00
2018-12-21T22:43:20.323Z,71.00
2018-12-21T22:45:28.985Z,71.00
2018-12-21T22:47:37.856Z,71.00
2018-12-21T22:49:46.745Z,71.00
2018-12-21T22:51:56.322Z,71.00
2018-12-21T22:54:05.102Z,71.00
2018-12-21T22:56:14.010Z,70.80
2018-12-21T22:58:22.903Z,70.90
2018-12-21T23:00:31.797Z,70.90
2018-12-21T23:02:41.455Z,71.70
2018-12-21T23:04:50.312Z,70.90
2018-12-21T23:07:00.015Z,71.10
2018-12-21T23:09:08.838Z,71.00
2018-12-21T23:11:18.208Z,71.10
2018-12-21T23:13:27.177Z,71.10
2018-12-21T23:15:36.862Z,71.20
2018-12-21T23:17:46.370Z,71.30
2018-12-21T23:19:55.194Z,70.50
2018-12-21T23:22:04.017Z,70.80
2018-12-21T23:24:12.747Z,71.20
2018-12-21T23:26:22.843Z,71.60
2018-12-21T23:28:32.041Z,71.50
2018-12-21T23:30:40.883Z,71.80
2018-12-21T23:32:50.650Z,72.00
2018-12-21T23:34:59.415Z,71.90
2018-12-21T23:37:08.211Z,72.00
2018-12-21T23:39:17.009Z,72.10
2018-12-21T23:41:25.743Z,72.10
2018-12-21T23:43:39.478Z,72.20
2018-12-21T23:45:43.541Z,72.20
2018-12-21T23:47:53.208Z,72.60
2018-12-21T23:50:02.630Z,72.30
2018-12-21T23:52:11.467Z,72.20
2018-12-21T23:54:20.209Z,72.20
2018-12-21T23:56:28.996Z,72.20
2018-12-21T23:58:37.807Z,72.20
